Time;durP1;ratioP1;P1;durP2;ratioP2;P2;SDS_P1;SDS_P2;PMS_P1;PMS_P2;Temp;Humidity;BMP_temperature;BMP_pressure;BME280_temperature;BME280_humidity;BME280_pressure;Samples;Min_cycle;Max_cycle;Signal;HPM_P1;HPM_P2
2024/04/17 00:01:40;;;;;;;27.57;3.30;;;7.90;99.90;;;;;;5425017;26;20719;-86
2024/04/17 00:04:05;;;;;;;21.50;3.70;;;8.00;99.90;;;;;;5424533;26;20215;-85
2024/04/17 00:06:31;;;;;;;19.40;2.67;;;8.00;99.90;;;;;;5426791;26;20206;-86
2024/04/17 00:08:57;;;;;;;17.10;2.50;;;8.00;99.90;;;;;;5424225;26;20215;-86
2024/04/17 00:11:23;;;;;;;18.30;3.00;;;7.90;99.90;;;;;;5426586;26;20226;-86
2024/04/17 00:13:48;;;;;;;21.50;3.43;;;7.90;99.90;;;;;;5427522;26;20206;-85
2024/04/17 00:16:14;;;;;;;26.97;4.00;;;7.80;99.90;;;;;;5427549;26;20213;-86
2024/04/17 00:18:39;;;;;;;16.40;3.00;;;7.90;99.90;;;;;;5426943;26;20210;-85
2024/04/17 00:21:05;;;;;;;23.87;2.47;;;7.90;99.90;;;;;;5427650;26;20254;-85
2024/04/17 00:23:31;;;;;;;27.53;4.10;;;7.80;99.90;;;;;;5424301;26;20241;-86
2024/04/17 00:25:56;;;;;;;18.43;3.10;;;7.80;99.90;;;;;;5426146;26;20224;-84
2024/04/17 00:28:25;;;;;;;14.57;2.23;;;7.70;99.90;;;;;;5425001;26;20237;-85
2024/04/17 00:30:51;;;;;;;19.13;2.90;;;7.70;99.90;;;;;;5426351;26;20345;-85
2024/04/17 00:33:16;;;;;;;21.70;2.90;;;7.70;99.90;;;;;;5424556;26;20215;-85
2024/04/17 00:35:42;;;;;;;22.53;2.93;;;7.80;99.90;;;;;;5428272;26;20497;-85
2024/04/17 00:38:08;;;;;;;15.93;2.43;;;7.80;99.90;;;;;;5427343;26;20305;-86
2024/04/17 00:40:35;;;;;;;20.53;2.93;;;7.80;99.90;;;;;;5429172;26;20222;-86
2024/04/17 00:43:01;;;;;;;15.23;2.30;;;7.80;99.90;;;;;;5426443;26;20245;-85
2024/04/17 00:45:33;;;;;;;23.97;2.63;;;7.90;99.90;;;;;;5424345;26;20215;-86
2024/04/17 00:48:00;;;;;;;20.25;2.33;;;7.90;99.90;;;;;;5424575;26;20488;-84
2024/04/17 00:50:26;;;;;;;18.75;2.42;;;7.90;99.90;;;;;;5424833;26;20226;-84
2024/04/17 00:52:52;;;;;;;18.52;4.20;;;7.90;99.90;;;;;;5426885;26;20222;-85
2024/04/17 00:55:18;;;;;;;20.95;2.42;;;7.80;99.90;;;;;;5424420;26;20707;-85
2024/04/17 00:57:46;;;;;;;17.30;2.00;;;7.80;99.90;;;;;;5424394;26;20279;-85
2024/04/17 01:00:12;;;;;;;17.20;2.45;;;7.70;99.90;;;;;;5425989;26;21141;-85
2024/04/17 01:02:38;;;;;;;15.73;2.35;;;7.70;99.90;;;;;;5424698;26;20227;-84
2024/04/17 01:05:03;;;;;;;23.50;2.97;;;7.70;99.90;;;;;;5426954;26;20248;-84
2024/04/17 01:07:29;;;;;;;15.70;2.37;;;7.70;99.90;;;;;;5423220;26;20252;-85
2024/04/17 01:09:55;;;;;;;25.57;2.43;;;7.70;99.90;;;;;;5427180;26;20456;-84
2024/04/17 01:12:20;;;;;;;15.80;2.43;;;7.70;99.90;;;;;;5425022;26;20582;-85
2024/04/17 01:14:46;;;;;;;19.53;4.13;;;7.70;99.90;;;;;;5427071;26;20245;-84
2024/04/17 01:17:13;;;;;;;16.60;2.93;;;7.60;99.90;;;;;;5425874;26;20213;-85
2024/04/17 01:19:40;;;;;;;18.33;3.70;;;7.60;99.90;;;;;;5426293;26;20253;-85
2024/04/17 01:22:06;;;;;;;22.52;2.63;;;7.60;99.90;;;;;;5423847;26;20240;-85
2024/04/17 01:24:31;;;;;;;19.03;2.67;;;7.50;99.90;;;;;;5423648;26;20222;-84
2024/04/17 01:26:57;;;;;;;22.30;2.83;;;7.50;99.90;;;;;;5426072;26;20212;-84
2024/04/17 01:29:23;;;;;;;22.50;2.63;;;7.60;99.90;;;;;;5425312;26;20291;-84
2024/04/17 01:31:48;;;;;;;17.10;1.90;;;7.60;99.90;;;;;;5424092;26;20242;-84
2024/04/17 01:34:14;;;;;;;18.03;2.00;;;7.60;99.90;;;;;;5425803;26;20206;-84
2024/04/17 01:36:39;;;;;;;20.00;2.73;;;7.70;99.90;;;;;;5425627;26;20212;-85
2024/04/17 01:39:05;;;;;;;17.90;2.27;;;7.70;99.90;;;;;;5425243;26;20559;-84
2024/04/17 01:41:31;;;;;;;19.23;2.70;;;7.60;99.90;;;;;;5423849;26;20226;-85
2024/04/17 01:43:56;;;;;;;18.23;2.60;;;7.60;99.90;;;;;;5423364;26;20318;-85
2024/04/17 01:46:22;;;;;;;19.10;2.83;;;7.70;99.90;;;;;;5423795;26;20218;-85
2024/04/17 01:48:48;;;;;;;16.33;2.47;;;7.70;99.90;;;;;;5425536;26;20211;-84
2024/04/17 01:51:13;;;;;;;20.37;2.60;;;7.60;99.90;;;;;;5423149;26;20556;-85
2024/04/17 01:53:39;;;;;;;15.53;2.30;;;7.60;99.90;;;;;;5426646;26;20315;-85
2024/04/17 01:56:05;;;;;;;18.73;2.70;;;7.40;99.90;;;;;;5426487;26;20259;-84
2024/04/17 01:58:31;;;;;;;16.60;2.83;;;7.50;99.90;;;;;;5427215;26;20273;-84
2024/04/17 02:00:56;;;;;;;18.77;2.20;;;7.50;99.90;;;;;;5422223;26;20225;-84
2024/04/17 02:03:22;;;;;;;17.83;2.47;;;7.50;99.90;;;;;;5416554;26;20673;-84
2024/04/17 02:05:47;;;;;;;17.00;2.20;;;7.50;99.90;;;;;;5380226;26;20212;-84
2024/04/17 02:08:13;;;;;;;22.50;2.60;;;7.50;99.90;;;;;;5380017;26;20215;-85
2024/04/17 02:10:39;;;;;;;23.30;2.43;;;7.50;99.90;;;;;;5380436;26;20221;-85
2024/04/17 02:13:04;;;;;;;20.17;2.90;;;7.50;99.90;;;;;;5446603;26;20216;-85
2024/04/17 02:15:36;;;;;;;27.07;2.10;;;7.50;99.90;;;;;;5379722;26;20258;-86
2024/04/17 02:18:02;;;;;;;20.45;3.00;;;7.50;99.90;;;;;;5386230;26;20213;-84
2024/04/17 02:20:27;;;;;;;15.03;1.90;;;7.40;99.90;;;;;;5384605;26;20693;-84
2024/04/17 02:22:53;;;;;;;18.37;2.60;;;7.40;99.90;;;;;;5419363;26;20217;-86
2024/04/17 02:25:19;;;;;;;15.73;1.90;;;7.40;99.90;;;;;;5383656;26;20216;-86
2024/04/17 02:27:44;;;;;;;18.83;2.07;;;7.40;99.90;;;;;;5382259;26;20592;-86
2024/04/17 02:30:16;;;;;;;15.53;2.00;;;7.40;99.90;;;;;;5380049;26;20254;-86
2024/04/17 02:32:43;;;;;;;18.20;3.00;;;7.40;99.90;;;;;;5380697;26;20441;-86
2024/04/17 02:35:12;;;;;;;20.83;2.55;;;7.40;99.90;;;;;;5416114;26;20239;-86
2024/04/17 02:37:40;;;;;;;17.60;2.40;;;7.40;99.90;;;;;;5381001;26;20218;-86
2024/04/17 02:40:09;;;;;;;16.75;2.40;;;7.40;99.90;;;;;;5417044;26;20279;-85
2024/04/17 02:42:38;;;;;;;17.13;2.30;;;7.40;99.90;;;;;;5416730;26;20633;-86
2024/04/17 02:45:04;;;;;;;18.83;2.17;;;7.40;99.90;;;;;;5380619;26;20211;-86
2024/04/17 02:47:32;;;;;;;19.00;2.40;;;7.40;99.90;;;;;;5380317;26;20280;-86
2024/04/17 02:49:58;;;;;;;20.65;2.55;;;7.30;99.90;;;;;;5416678;26;20282;-85
2024/04/17 02:52:24;;;;;;;18.40;1.83;;;7.30;99.90;;;;;;5380572;26;20212;-86
2024/04/17 02:54:49;;;;;;;16.70;2.35;;;7.30;99.90;;;;;;5380859;26;20445;-86
2024/04/17 02:57:15;;;;;;;15.90;1.50;;;7.20;99.90;;;;;;5380260;26;20803;-85
2024/04/17 02:59:41;;;;;;;15.10;1.63;;;7.20;99.90;;;;;;5380005;26;20210;-86
2024/04/17 03:02:06;;;;;;;17.67;2.17;;;7.20;99.90;;;;;;5416743;26;20742;-86
2024/04/17 03:04:32;;;;;;;15.60;2.27;;;7.20;99.90;;;;;;5416329;26;20726;-86
2024/04/17 03:06:58;;;;;;;14.10;2.03;;;7.20;99.90;;;;;;5379780;26;20209;-86
2024/04/17 03:09:23;;;;;;;17.13;2.33;;;7.20;99.90;;;;;;5379983;26;20204;-86
2024/04/17 03:11:49;;;;;;;18.43;2.77;;;7.10;99.90;;;;;;5379268;26;20336;-86
2024/04/17 03:14:14;;;;;;;14.70;1.70;;;7.00;99.90;;;;;;5379525;26;20208;-86
2024/04/17 03:16:40;;;;;;;14.47;2.10;;;7.00;99.90;;;;;;5379430;26;20267;-85
2024/04/17 03:19:06;;;;;;;14.73;2.10;;;6.90;99.90;;;;;;5379119;26;20242;-86
2024/04/17 03:21:31;;;;;;;13.93;2.07;;;7.00;99.90;;;;;;5379537;26;20247;-86
2024/04/17 03:23:57;;;;;;;18.00;3.17;;;6.90;99.90;;;;;;5379266;26;20284;-86
2024/04/17 03:26:28;;;;;;;14.27;1.70;;;6.90;99.90;;;;;;5379582;26;20254;-86
2024/04/17 03:28:54;;;;;;;19.38;2.55;;;6.90;99.90;;;;;;5378525;26;20641;-86
2024/04/17 03:31:19;;;;;;;13.80;2.50;;;6.90;99.90;;;;;;5378582;26;20228;-86
2024/04/17 03:33:46;;;;;;;15.07;2.07;;;6.90;99.90;;;;;;5379083;26;20275;-86
2024/04/17 03:36:11;;;;;;;15.20;2.67;;;6.80;99.90;;;;;;5379197;26;20210;-86
2024/04/17 03:38:37;;;;;;;13.53;1.93;;;6.80;99.90;;;;;;5379300;26;20267;-86
2024/04/17 03:41:03;;;;;;;14.80;1.67;;;6.80;99.90;;;;;;5378775;26;20309;-86
2024/04/17 03:43:32;;;;;;;16.87;2.00;;;6.80;99.90;;;;;;5414723;26;20704;-86
2024/04/17 03:45:58;;;;;;;14.43;2.13;;;6.80;99.90;;;;;;5414894;26;20737;-86
2024/04/17 03:48:26;;;;;;;18.10;2.47;;;6.70;99.90;;;;;;5414869;26;20216;-86
2024/04/17 03:50:55;;;;;;;19.25;2.70;;;6.70;99.90;;;;;;5378333;26;20459;-86
2024/04/17 03:53:25;;;;;;;18.98;2.50;;;6.70;99.90;;;;;;5413621;26;20301;-86
2024/04/17 03:55:51;;;;;;;15.40;1.83;;;6.70;99.90;;;;;;5414673;26;20216;-86
2024/04/17 03:58:17;;;;;;;17.00;2.83;;;6.60;99.90;;;;;;5414611;26;20246;-86
2024/04/17 04:03:14;;;;;;;16.52;2.47;;;6.70;99.90;;;;;;5447314;21;20305;-82
2024/04/17 04:05:44;;;;;;;15.10;2.03;;;6.60;99.90;;;;;;5375454;26;20251;-81
2024/04/17 04:08:09;;;;;;;17.83;2.28;;;6.60;99.90;;;;;;5344423;26;20313;-81
2024/04/17 04:10:35;;;;;;;15.80;2.57;;;6.60;99.90;;;;;;5375218;26;20221;-82
2024/04/17 04:13:01;;;;;;;13.45;1.95;;;6.60;99.90;;;;;;5344347;26;20248;-82
2024/04/17 04:15:27;;;;;;;17.77;3.10;;;6.60;99.90;;;;;;5344652;26;20216;-82
2024/04/17 04:17:53;;;;;;;22.03;2.27;;;6.60;99.90;;;;;;5375133;26;20556;-81
2024/04/17 04:20:18;;;;;;;17.43;2.40;;;6.60;99.90;;;;;;5375267;26;20232;-82
2024/04/17 04:22:44;;;;;;;16.80;3.53;;;6.60;99.90;;;;;;5375045;26;20212;-82
2024/04/17 04:25:09;;;;;;;19.77;2.53;;;6.60;99.90;;;;;;5375130;26;20306;-81
2024/04/17 04:27:35;;;;;;;17.13;2.70;;;6.50;99.90;;;;;;5375138;26;20254;-82
2024/04/17 04:30:01;;;;;;;15.67;2.00;;;6.50;99.90;;;;;;5375033;26;20259;-81
2024/04/17 04:32:26;;;;;;;20.10;2.87;;;6.50;99.90;;;;;;5344287;26;20303;-81
2024/04/17 04:34:52;;;;;;;16.67;2.60;;;6.50;99.90;;;;;;5375200;26;20258;-81
2024/04/17 04:37:19;;;;;;;16.02;2.88;;;6.50;99.90;;;;;;5375025;26;20268;-82
2024/04/17 04:39:45;;;;;;;19.45;3.35;;;6.40;99.90;;;;;;5344430;26;20308;-82
2024/04/17 04:42:11;;;;;;;19.53;3.17;;;6.40;99.90;;;;;;5373218;26;20219;-82
2024/04/17 04:44:36;;;;;;;17.73;3.67;;;6.40;99.90;;;;;;5376154;26;20216;-82
2024/04/17 04:47:02;;;;;;;21.40;3.20;;;6.40;99.90;;;;;;5345672;26;20641;-82
2024/04/17 04:49:28;;;;;;;25.53;4.10;;;6.40;99.90;;;;;;5345086;26;20242;-82
2024/04/17 04:51:54;;;;;;;16.67;3.77;;;6.40;99.90;;;;;;5345491;26;20241;-82
2024/04/17 04:54:19;;;;;;;22.93;4.07;;;6.40;99.90;;;;;;5376332;26;20496;-82
2024/04/17 04:56:45;;;;;;;19.85;4.20;;;6.40;99.90;;;;;;5376324;26;20209;-82
2024/04/17 04:59:11;;;;;;;18.57;3.80;;;6.40;99.90;;;;;;5344945;26;20313;-82
2024/04/17 05:01:36;;;;;;;20.80;5.37;;;6.40;99.90;;;;;;5376615;26;20228;-82
2024/04/17 05:04:02;;;;;;;20.13;5.10;;;6.50;99.90;;;;;;5375879;26;20290;-82
2024/04/17 05:06:28;;;;;;;20.23;4.83;;;6.50;99.90;;;;;;5345202;26;20216;-82
2024/04/17 05:08:53;;;;;;;19.10;4.80;;;6.60;99.90;;;;;;5375840;26;20208;-82
2024/04/17 05:11:19;;;;;;;18.13;4.40;;;6.50;99.90;;;;;;5376282;26;20702;-82
2024/04/17 05:13:44;;;;;;;25.80;6.37;;;6.60;99.90;;;;;;5344797;26;20223;-82
2024/04/17 05:16:10;;;;;;;19.03;5.20;;;6.60;99.90;;;;;;5375851;26;20209;-82
2024/04/17 05:18:36;;;;;;;21.07;6.07;;;6.60;99.90;;;;;;5375770;26;20319;-82
2024/04/17 05:21:01;;;;;;;17.77;5.07;;;6.60;99.90;;;;;;5375595;26;20253;-82
2024/04/17 05:23:27;;;;;;;21.50;6.10;;;6.60;99.90;;;;;;5344705;26;20224;-82
2024/04/17 05:25:53;;;;;;;28.10;7.53;;;6.70;99.90;;;;;;5375834;26;20670;-83
2024/04/17 05:28:18;;;;;;;19.27;5.57;;;6.70;99.90;;;;;;5345076;26;20673;-82
2024/04/17 05:30:44;;;;;;;21.90;6.30;;;6.70;99.90;;;;;;5344489;26;20237;-82
2024/04/17 05:33:10;;;;;;;20.60;6.20;;;6.70;99.90;;;;;;5344118;26;20220;-82
2024/04/17 05:35:35;;;;;;;29.37;7.50;;;6.70;99.90;;;;;;5344201;26;20229;-82
2024/04/17 05:38:01;;;;;;;27.97;5.60;;;6.60;99.90;;;;;;5374944;26;20250;-82
2024/04/17 05:40:26;;;;;;;24.70;5.50;;;6.70;99.90;;;;;;5344284;26;20220;-82
2024/04/17 05:42:52;;;;;;;25.23;6.47;;;6.70;99.90;;;;;;5374982;26;20205;-82
2024/04/17 05:45:18;;;;;;;25.63;6.80;;;6.60;99.90;;;;;;5374871;26;20213;-82
2024/04/17 05:47:43;;;;;;;18.30;5.60;;;6.60;99.90;;;;;;5374688;26;20263;-82
2024/04/17 05:50:09;;;;;;;18.00;5.67;;;6.70;99.90;;;;;;5374534;26;20243;-82
2024/04/17 05:52:34;;;;;;;32.80;6.10;;;6.70;99.90;;;;;;5376230;26;20249;-82
2024/04/17 05:55:00;;;;;;;25.40;5.37;;;6.70;99.90;;;;;;5347357;26;20231;-82
2024/04/17 05:57:26;;;;;;;25.30;5.50;;;6.80;99.90;;;;;;5378161;26;20254;-82
2024/04/17 05:59:51;;;;;;;29.70;5.87;;;6.90;99.90;;;;;;5377956;26;20223;-82
2024/04/17 06:02:17;;;;;;;25.63;6.40;;;6.90;99.90;;;;;;5378074;26;20225;-82
2024/04/17 06:04:43;;;;;;;20.10;6.40;;;7.00;99.90;;;;;;5347405;26;20301;-82
2024/04/17 06:07:09;;;;;;;21.07;6.40;;;7.00;99.90;;;;;;5346771;26;20221;-81
2024/04/17 06:09:34;;;;;;;24.67;7.18;;;7.00;99.90;;;;;;5376484;26;20258;-81
2024/04/17 06:12:00;;;;;;;25.63;7.07;;;7.00;99.90;;;;;;5346190;26;20255;-81
2024/04/17 06:14:26;;;;;;;24.47;7.17;;;7.00;99.90;;;;;;5377161;26;20256;-82
2024/04/17 06:16:51;;;;;;;21.90;5.20;;;7.00;99.90;;;;;;5346295;26;20239;-82
2024/04/17 06:19:17;;;;;;;21.63;5.90;;;7.10;99.90;;;;;;5377193;26;20208;-82
2024/04/17 06:21:45;;;;;;;21.93;4.90;;;7.00;99.90;;;;;;5377447;26;20250;-81
2024/04/17 06:24:11;;;;;;;22.60;5.97;;;7.00;99.90;;;;;;5377609;26;20203;-82
2024/04/17 06:26:37;;;;;;;21.40;5.53;;;7.10;99.90;;;;;;5377851;26;20206;-82
2024/04/17 06:29:02;;;;;;;21.20;5.33;;;7.10;99.90;;;;;;5378077;26;20216;-81
2024/04/17 06:31:29;;;;;;;30.23;5.80;;;7.10;99.90;;;;;;5377523;26;20243;-82
2024/04/17 06:33:55;;;;;;;20.20;4.45;;;7.10;99.90;;;;;;5377583;26;20213;-81
2024/04/17 06:36:21;;;;;;;21.70;6.27;;;7.10;99.90;;;;;;5346897;26;20307;-81
2024/04/17 06:38:46;;;;;;;21.30;4.80;;;7.20;99.90;;;;;;5377592;26;20221;-81
2024/04/17 06:41:12;;;;;;;18.90;5.83;;;7.20;99.90;;;;;;5346413;26;20228;-82
2024/04/17 06:43:38;;;;;;;17.63;4.60;;;7.20;99.90;;;;;;5346437;26;20216;-82
2024/04/17 06:46:03;;;;;;;18.63;4.47;;;7.30;99.90;;;;;;5377869;26;20257;-82
2024/04/17 06:48:29;;;;;;;19.73;5.13;;;7.30;99.90;;;;;;5346633;26;20270;-82
2024/04/17 06:50:55;;;;;;;21.47;4.90;;;7.40;99.90;;;;;;5377463;26;20456;-81
2024/04/17 06:53:21;;;;;;;20.70;4.32;;;7.40;99.90;;;;;;5346148;26;20244;-80
2024/04/17 06:55:47;;;;;;;20.83;7.43;;;7.40;99.90;;;;;;5376698;26;20210;-80
2024/04/17 06:58:12;;;;;;;21.03;4.90;;;7.50;99.90;;;;;;5377152;26;20216;-81
2024/04/17 07:00:38;;;;;;;18.83;5.60;;;7.50;99.90;;;;;;5376830;26;20248;-82
2024/04/17 07:03:04;;;;;;;21.93;5.70;;;7.60;99.90;;;;;;5377100;26;20227;-80
2024/04/17 07:05:30;;;;;;;20.77;4.97;;;7.60;99.90;;;;;;5375915;26;20179;-81
2024/04/17 07:07:55;;;;;;;23.40;6.40;;;7.60;99.90;;;;;;5346065;26;20319;-81
2024/04/17 07:10:22;;;;;;;21.57;5.47;;;7.60;99.90;;;;;;5376751;26;20312;-81
2024/04/17 07:12:48;;;;;;;23.35;5.90;;;7.60;99.90;;;;;;5345566;26;20258;-79
2024/04/17 07:15:13;;;;;;;26.30;5.00;;;7.60;99.90;;;;;;5376491;26;20215;-80
2024/04/17 07:17:39;;;;;;;20.80;5.43;;;7.60;99.90;;;;;;5346046;26;20442;-80
2024/04/17 07:20:05;;;;;;;27.30;5.50;;;7.50;99.90;;;;;;5376562;26;20289;-81
2024/04/17 07:22:32;;;;;;;21.42;5.10;;;7.50;99.90;;;;;;5345594;26;20217;-80
2024/04/17 07:24:57;;;;;;;23.02;5.40;;;7.60;99.90;;;;;;5345674;26;20217;-81
2024/04/17 07:27:23;;;;;;;30.40;5.93;;;7.50;99.90;;;;;;5346310;26;20250;-80
2024/04/17 07:29:49;;;;;;;18.23;5.43;;;7.50;99.90;;;;;;5377185;26;20214;-81
2024/04/17 07:32:15;;;;;;;24.20;5.50;;;7.40;99.90;;;;;;5347132;26;20599;-81
2024/04/17 07:34:40;;;;;;;17.48;4.65;;;7.40;99.90;;;;;;5376987;26;20310;-80
2024/04/17 07:37:06;;;;;;;27.17;6.70;;;7.30;99.90;;;;;;5377088;26;20656;-81
2024/04/17 07:39:32;;;;;;;21.00;4.60;;;7.40;99.90;;;;;;5376867;26;20215;-80
2024/04/17 07:41:57;;;;;;;16.20;4.10;;;7.30;99.90;;;;;;5345996;26;20561;-82
2024/04/17 07:44:23;;;;;;;18.90;4.83;;;7.30;99.90;;;;;;5376772;26;20214;-82
2024/04/17 07:46:49;;;;;;;18.77;4.03;;;7.30;99.90;;;;;;5376867;26;20663;-82
2024/04/17 07:49:18;;;;;;;16.87;3.40;;;7.30;99.90;;;;;;5377004;26;20446;-81
2024/04/17 07:51:43;;;;;;;15.90;4.00;;;7.30;99.90;;;;;;5345613;26;20227;-83
2024/04/17 07:54:09;;;;;;;15.03;3.07;;;7.30;99.90;;;;;;5346054;26;20248;-81
2024/04/17 07:56:35;;;;;;;17.03;3.47;;;7.20;99.90;;;;;;5376506;26;20221;-81
2024/04/17 07:59:00;;;;;;;14.70;2.63;;;7.20;99.90;;;;;;5376532;26;20209;-81
2024/04/17 08:01:26;;;;;;;17.30;2.57;;;7.20;99.90;;;;;;5376712;26;20217;-82
2024/04/17 08:03:53;;;;;;;13.53;2.30;;;7.20;99.90;;;;;;5377097;26;20184;-81
2024/04/17 08:06:20;;;;;;;14.55;2.60;;;7.20;99.90;;;;;;5376817;26;20208;-81
2024/04/17 08:08:47;;;;;;;14.52;2.13;;;7.10;99.90;;;;;;5377194;26;20246;-82
2024/04/17 08:11:13;;;;;;;13.30;1.95;;;7.00;99.90;;;;;;5345731;26;20224;-82
2024/04/17 08:13:39;;;;;;;20.30;3.40;;;7.00;99.90;;;;;;5376733;26;20240;-82
2024/04/17 08:16:05;;;;;;;12.70;1.53;;;7.10;99.90;;;;;;5376443;26;20835;-81
2024/04/17 08:18:38;;;;;;;13.13;1.55;;;7.10;99.90;;;;;;5345330;26;20446;-81
2024/04/17 08:21:04;;;;;;;12.90;1.80;;;7.20;99.90;;;;;;5345408;26;20225;-81
2024/04/17 08:23:30;;;;;;;13.20;1.40;;;7.10;99.90;;;;;;5376789;26;20195;-81
2024/04/17 08:25:55;;;;;;;13.50;1.73;;;7.10;99.90;;;;;;5345452;26;20517;-81
2024/04/17 08:28:21;;;;;;;13.07;1.40;;;7.20;99.90;;;;;;5377158;26;20558;-81
2024/04/17 08:30:47;;;;;;;16.20;2.30;;;7.20;99.90;;;;;;5346003;26;20641;-81
2024/04/17 08:33:12;;;;;;;13.50;2.00;;;7.10;99.90;;;;;;5376548;26;20215;-81
2024/04/17 08:35:39;;;;;;;13.63;2.10;;;7.20;99.90;;;;;;5345829;26;20244;-81
2024/04/17 08:38:05;;;;;;;13.90;1.90;;;7.20;99.90;;;;;;5345807;26;20256;-81
2024/04/17 08:40:30;;;;;;;15.30;2.47;;;7.20;99.90;;;;;;5376690;26;20229;-82
2024/04/17 08:43:04;;;;;;;17.40;2.80;;;7.30;99.90;;;;;;5345654;26;20444;-81
2024/04/17 08:45:34;;;;;;;15.85;1.98;;;7.40;99.90;;;;;;5345266;26;20452;-81
2024/04/17 08:48:07;;;;;;;15.65;2.50;;;7.50;99.90;;;;;;5377123;26;20217;-81
2024/04/17 08:50:35;;;;;;;16.27;2.10;;;7.50;99.90;;;;;;5345170;26;20229;-82
2024/04/17 08:53:03;;;;;;;15.75;2.45;;;7.60;99.90;;;;;;5376409;26;20557;-81
2024/04/17 08:55:29;;;;;;;14.40;2.00;;;7.60;99.90;;;;;;5345816;26;20220;-81
2024/04/17 08:57:56;;;;;;;14.13;2.20;;;7.70;99.90;;;;;;5376288;26;20256;-81
2024/04/17 09:00:24;;;;;;;13.07;1.80;;;7.60;99.90;;;;;;5376374;26;20259;-82
2024/04/17 09:02:55;;;;;;;13.50;1.90;;;7.60;99.90;;;;;;5376155;26;20260;-82
2024/04/17 09:05:21;;;;;;;13.70;2.00;;;7.70;99.90;;;;;;5376275;26;20174;-81
2024/04/17 09:07:49;;;;;;;15.38;2.53;;;7.70;99.90;;;;;;5345232;26;20224;-81
2024/04/17 09:10:17;;;;;;;14.90;2.13;;;7.80;99.90;;;;;;5375774;26;20225;-81
2024/04/17 09:12:44;;;;;;;14.32;2.08;;;7.80;99.90;;;;;;5344810;26;20589;-81
2024/04/17 09:15:13;;;;;;;14.73;1.77;;;7.80;99.90;;;;;;5375592;26;20207;-81
2024/04/17 09:17:38;;;;;;;15.52;2.42;;;7.80;99.90;;;;;;5375459;26;20250;-81
2024/04/17 09:20:05;;;;;;;18.13;2.37;;;7.80;99.90;;;;;;5375417;26;20220;-81
2024/04/17 09:22:31;;;;;;;19.10;3.22;;;7.70;99.90;;;;;;5375660;26;20213;-81
2024/04/17 09:24:56;;;;;;;13.43;2.15;;;7.70;99.90;;;;;;5344612;26;20220;-81
2024/04/17 09:27:22;;;;;;;22.50;3.00;;;7.80;99.90;;;;;;5343413;26;20250;-81
2024/04/17 09:29:48;;;;;;;15.63;2.50;;;7.80;99.90;;;;;;5344044;26;20223;-81
2024/04/17 09:32:15;;;;;;;16.23;2.10;;;7.80;99.90;;;;;;5344766;26;20216;-81
2024/04/17 09:34:40;;;;;;;14.50;2.20;;;7.90;99.90;;;;;;5344362;26;20215;-81
2024/04/17 09:37:10;;;;;;;13.47;2.17;;;7.80;99.90;;;;;;5344478;26;20218;-81
2024/04/17 09:39:35;;;;;;;18.23;2.20;;;7.80;99.90;;;;;;5375214;26;20430;-80
2024/04/17 09:42:07;;;;;;;17.50;2.17;;;7.80;99.90;;;;;;5375789;26;20734;-82
2024/04/17 09:44:37;;;;;;;15.70;2.42;;;7.80;99.90;;;;;;5345101;26;20228;-82
2024/04/17 09:47:11;;;;;;;14.88;2.58;;;7.80;99.90;;;;;;5344346;26;20219;-81
2024/04/17 09:49:41;;;;;;;15.25;2.40;;;7.80;99.90;;;;;;5375505;26;20175;-82
2024/04/17 09:52:11;;;;;;;15.85;3.10;;;7.80;99.90;;;;;;5375612;26;20173;-82
2024/04/17 09:54:38;;;;;;;14.65;1.92;;;7.90;99.90;;;;;;5344251;26;20253;-82
2024/04/17 09:57:04;;;;;;;15.07;2.60;;;8.00;99.90;;;;;;5375260;26;20316;-82
2024/04/17 09:59:32;;;;;;;19.98;3.58;;;8.10;99.90;;;;;;5375490;26;20212;-82
2024/04/17 10:01:58;;;;;;;14.23;2.15;;;8.20;99.90;;;;;;5437425;21;20278;-82
2024/04/17 10:04:26;;;;;;;13.40;2.00;;;8.40;99.90;;;;;;5344778;26;20242;-81
2024/04/17 10:06:52;;;;;;;14.82;2.80;;;8.40;99.90;;;;;;5375214;26;20668;-82
2024/04/17 10:09:21;;;;;;;17.65;2.70;;;8.40;99.90;;;;;;5375655;26;20208;-82
2024/04/17 10:11:50;;;;;;;13.27;2.38;;;8.50;99.90;;;;;;5375000;26;20216;-81
2024/04/17 10:14:17;;;;;;;13.80;2.30;;;8.60;99.90;;;;;;5374988;26;20271;-82
2024/04/17 10:16:43;;;;;;;17.30;3.40;;;8.60;99.90;;;;;;5375178;26;20258;-82
2024/04/17 10:19:09;;;;;;;16.63;2.73;;;8.50;99.90;;;;;;5374835;26;20616;-82
2024/04/17 10:21:38;;;;;;;15.02;2.95;;;8.40;99.90;;;;;;5374837;26;20457;-82
2024/04/17 10:24:08;;;;;;;15.38;3.80;;;8.40;99.90;;;;;;5374912;26;20208;-82
2024/04/17 10:26:49;;;;;;;16.50;2.72;;;8.30;99.90;;;;;;5374435;26;20198;-82
2024/04/17 10:29:22;;;;;;;15.75;3.30;;;8.40;99.90;;;;;;5344326;26;20220;-82
2024/04/17 10:32:05;;;;;;;16.65;3.85;;;8.40;99.90;;;;;;5344001;26;20235;-82
2024/04/17 10:34:45;;;;;;;16.55;3.22;;;8.50;99.90;;;;;;5344464;26;20220;-82
2024/04/17 10:37:11;;;;;;;17.40;3.53;;;8.50;99.90;;;;;;5375251;26;20195;-82
2024/04/17 10:39:39;;;;;;;16.35;3.35;;;8.70;99.90;;;;;;5346975;26;20218;-82
2024/04/17 10:42:06;;;;;;;20.52;3.40;;;8.90;99.90;;;;;;5347982;26;20212;-82
2024/04/17 10:44:35;;;;;;;16.38;3.20;;;9.10;99.90;;;;;;5378306;26;20316;-82
2024/04/17 10:47:05;;;;;;;15.82;3.20;;;9.30;99.90;;;;;;5347899;26;20239;-82
2024/04/17 10:49:40;;;;;;;23.00;3.75;;;9.40;99.90;;;;;;5378911;26;20215;-82
2024/04/17 10:52:06;;;;;;;14.98;3.35;;;9.30;99.90;;;;;;5347247;26;20724;-82
2024/04/17 10:54:35;;;;;;;15.50;2.63;;;9.30;99.90;;;;;;5347378;26;20248;-81
2024/04/17 10:57:03;;;;;;;15.63;2.97;;;9.40;99.90;;;;;;5378603;26;20315;-82
2024/04/17 10:59:29;;;;;;;17.17;3.42;;;9.40;99.90;;;;;;5347092;26;20575;-82
2024/04/17 11:01:55;;;;;;;18.30;2.97;;;9.40;99.10;;;;;;5347252;26;20258;-82
2024/04/17 11:04:23;;;;;;;16.73;3.35;;;9.50;99.90;;;;;;5378152;26;20242;-82
2024/04/17 11:06:49;;;;;;;16.73;3.50;;;9.50;99.90;;;;;;5378286;26;20587;-82
2024/04/17 11:09:15;;;;;;;17.30;3.40;;;9.70;99.90;;;;;;5347195;26;20216;-82
2024/04/17 11:11:45;;;;;;;16.03;3.40;;;9.70;99.90;;;;;;5377896;26;20328;-82
2024/04/17 11:14:14;;;;;;;15.65;2.95;;;9.70;99.90;;;;;;5346061;26;20212;-82
2024/04/17 11:16:40;;;;;;;15.60;2.90;;;9.70;99.90;;;;;;5376855;26;20258;-82
2024/04/17 11:19:07;;;;;;;16.10;2.87;;;9.70;96.60;;;;;;5377075;26;20211;-82
2024/04/17 11:21:33;;;;;;;18.13;2.95;;;9.70;99.70;;;;;;5377189;26;20254;-81
2024/04/17 11:23:58;;;;;;;17.23;2.87;;;9.90;92.40;;;;;;5377303;26;20665;-81
2024/04/17 11:26:26;;;;;;;17.93;3.13;;;10.00;70.00;;;;;;5377040;26;20724;-82
2024/04/17 11:28:52;;;;;;;19.73;3.75;;;10.20;53.00;;;;;;5345613;26;20223;-81
2024/04/17 11:31:18;;;;;;;17.67;3.40;;;10.40;49.00;;;;;;5376708;26;20299;-82
2024/04/17 11:33:46;;;;;;;15.50;3.20;;;10.60;24.70;;;;;;5376575;26;20211;-82
2024/04/17 11:36:14;;;;;;;16.10;2.47;;;10.50;12.30;;;;;;5376980;26;20212;-81
2024/04/17 11:38:46;;;;;;;16.35;2.80;;;10.50;20.60;;;;;;5376708;26;20216;-81
2024/04/17 11:41:15;;;;;;;18.90;3.00;;;10.60;32.60;;;;;;5345239;26;20236;-81
2024/04/17 11:43:42;;;;;;;14.73;3.00;;;10.60;39.90;;;;;;5346015;26;20216;-81
2024/04/17 11:46:09;;;;;;;16.25;2.50;;;10.50;35.80;;;;;;5376790;26;20257;-82
2024/04/17 11:48:35;;;;;;;17.15;2.78;;;10.40;31.00;;;;;;5346287;26;20232;-82
2024/04/17 11:51:01;;;;;;;17.17;2.97;;;10.30;46.00;;;;;;5344996;26;20231;-81
2024/04/17 11:53:27;;;;;;;16.30;2.47;;;10.30;53.60;;;;;;5346280;26;20446;-81
2024/04/17 11:55:53;;;;;;;14.10;2.63;;;10.00;54.90;;;;;;5376177;26;20432;-81
2024/04/17 11:58:19;;;;;;;15.53;2.00;;;10.00;64.20;;;;;;5316743;26;20242;-81
2024/04/17 12:00:45;;;;;;;19.05;2.60;;;10.00;63.10;;;;;;5376264;26;20528;-81
2024/04/17 12:03:10;;;;;;;14.70;2.60;;;10.00;61.10;;;;;;5345600;26;20235;-82
2024/04/17 12:05:36;;;;;;;15.97;2.17;;;10.00;62.70;;;;;;5376411;26;20493;-81
2024/04/17 12:08:02;;;;;;;16.63;2.57;;;10.00;58.30;;;;;;5375891;26;20254;-81
2024/04/17 12:10:28;;;;;;;17.98;2.75;;;10.00;56.50;;;;;;5344850;26;20232;-81
2024/04/17 12:12:54;;;;;;;15.30;2.40;;;10.00;60.40;;;;;;5345133;26;20246;-81
2024/04/17 12:15:19;;;;;;;15.18;2.20;;;10.00;66.90;;;;;;5345435;26;20220;-80
2024/04/17 12:17:45;;;;;;;17.20;2.03;;;10.40;85.20;;;;;;5344924;26;20332;-81
2024/04/17 12:20:11;;;;;;;16.20;1.97;;;10.90;84.20;;;;;;5344560;26;20232;-80
2024/04/17 12:22:37;;;;;;;15.33;2.00;;;11.40;55.20;;;;;;5375932;26;20657;-80
2024/04/17 12:27:47;;;;;;;15.07;1.90;;;12.30;9.90;;;;;;5376595;26;20260;-81
2024/04/17 12:30:13;;;;;;;14.03;2.07;;;12.30;1.00;;;;;;5375895;26;20236;-81
2024/04/17 12:32:39;;;;;;;14.20;1.60;;;11.90;1.00;;;;;;5376080;26;20254;-82
2024/04/17 12:35:05;;;;;;;19.75;1.63;;;11.30;1.00;;;;;;5345409;26;20308;-81
2024/04/17 12:37:31;;;;;;;14.47;1.73;;;10.80;1.00;;;;;;5345369;26;20220;-81
2024/04/17 12:39:57;;;;;;;13.93;1.27;;;10.40;1.00;;;;;;5376049;26;20257;-81
2024/04/17 12:42:24;;;;;;;13.37;1.60;;;10.20;6.20;;;;;;5345538;26;20223;-81
2024/04/17 12:44:49;;;;;;;13.10;1.38;;;10.00;13.60;;;;;;5345459;26;20211;-81
2024/04/17 12:47:15;;;;;;;14.07;1.70;;;9.90;13.10;;;;;;5345700;26;20211;-81